sensor_id;sensor_type;location;lat;lon;timestamp;temperature;humidity
20284;DHT22;10301;50.832;4.080;2023-09-12T00:00:54;22.30;17.30
20284;DHT22;10301;50.832;4.080;2023-09-12T00:03:21;22.30;12.80
20284;DHT22;10301;50.832;4.080;2023-09-12T00:05:54;22.20;21.10
20284;DHT22;10301;50.832;4.080;2023-09-12T00:08:20;22.20;20.00
20284;DHT22;10301;50.832;4.080;2023-09-12T00:10:46;22.00;27.60
20284;DHT22;10301;50.832;4.080;2023-09-12T00:13:12;21.90;44.00
20284;DHT22;10301;50.832;4.080;2023-09-12T00:15:37;22.00;39.60
20284;DHT22;10301;50.832;4.080;2023-09-12T00:18:03;21.80;49.10
20284;DHT22;10301;50.832;4.080;2023-09-12T00:20:29;21.70;54.70
20284;DHT22;10301;50.832;4.080;2023-09-12T00:22:55;21.80;58.10
20284;DHT22;10301;50.832;4.080;2023-09-12T00:25:21;21.80;53.90
20284;DHT22;10301;50.832;4.080;2023-09-12T00:27:47;21.80;57.70
20284;DHT22;10301;50.832;4.080;2023-09-12T00:30:14;21.80;56.00
20284;DHT22;10301;50.832;4.080;2023-09-12T00:32:40;21.90;54.80
20284;DHT22;10301;50.832;4.080;2023-09-12T00:35:06;22.20;31.50
20284;DHT22;10301;50.832;4.080;2023-09-12T00:37:32;22.30;23.60
20284;DHT22;10301;50.832;4.080;2023-09-12T00:39:58;22.40;18.30
20284;DHT22;10301;50.832;4.080;2023-09-12T00:42:26;22.50;12.70
20284;DHT22;10301;50.832;4.080;2023-09-12T00:44:52;22.40;16.70
20284;DHT22;10301;50.832;4.080;2023-09-12T00:47:19;22.20;26.90
20284;DHT22;10301;50.832;4.080;2023-09-12T00:49:46;22.20;23.10
20284;DHT22;10301;50.832;4.080;2023-09-12T00:52:12;22.30;17.80
20284;DHT22;10301;50.832;4.080;2023-09-12T00:54:39;22.20;18.60
20284;DHT22;10301;50.832;4.080;2023-09-12T00:57:06;22.00;29.20
20284;DHT22;10301;50.832;4.080;2023-09-12T00:59:32;22.00;29.40
20284;DHT22;10301;50.832;4.080;2023-09-12T01:01:58;21.90;21.20
20284;DHT22;10301;50.832;4.080;2023-09-12T01:04:26;21.90;29.50
20284;DHT22;10301;50.832;4.080;2023-09-12T01:06:52;21.80;21.30
20284;DHT22;10301;50.832;4.080;2023-09-12T01:09:18;21.90;21.60
20284;DHT22;10301;50.832;4.080;2023-09-12T01:11:44;21.80;22.10
20284;DHT22;10301;50.832;4.080;2023-09-12T01:14:10;21.80;18.00
20284;DHT22;10301;50.832;4.080;2023-09-12T01:16:35;21.70;18.50
20284;DHT22;10301;50.832;4.080;2023-09-12T01:19:02;21.60;23.90
20284;DHT22;10301;50.832;4.080;2023-09-12T01:21:59;21.70;20.70
20284;DHT22;10301;50.832;4.080;2023-09-12T01:27:32;21.60;22.50
20284;DHT22;10301;50.832;4.080;2023-09-12T01:30:03;21.50;26.10
20284;DHT22;10301;50.832;4.080;2023-09-12T01:32:31;21.50;29.50
20284;DHT22;10301;50.832;4.080;2023-09-12T01:34:57;21.40;31.40
20284;DHT22;10301;50.832;4.080;2023-09-12T01:37:22;21.30;38.90
20284;DHT22;10301;50.832;4.080;2023-09-12T01:39:48;21.30;42.30
20284;DHT22;10301;50.832;4.080;2023-09-12T01:42:17;21.20;47.20
20284;DHT22;10301;50.832;4.080;2023-09-12T01:44:44;21.20;48.70
20284;DHT22;10301;50.832;4.080;2023-09-12T01:47:12;21.00;58.90
20284;DHT22;10301;50.832;4.080;2023-09-12T01:49:41;21.10;60.90
20284;DHT22;10301;50.832;4.080;2023-09-12T01:52:07;21.10;54.80
20284;DHT22;10301;50.832;4.080;2023-09-12T01:54:34;21.20;48.40
20284;DHT22;10301;50.832;4.080;2023-09-12T01:57:02;21.00;48.80
20284;DHT22;10301;50.832;4.080;2023-09-12T01:59:29;21.10;53.50
20284;DHT22;10301;50.832;4.080;2023-09-12T02:01:55;21.00;52.50
20284;DHT22;10301;50.832;4.080;2023-09-12T02:04:20;21.00;62.20
20284;DHT22;10301;50.832;4.080;2023-09-12T02:06:46;21.00;57.20
20284;DHT22;10301;50.832;4.080;2023-09-12T02:09:12;21.00;58.10
20284;DHT22;10301;50.832;4.080;2023-09-12T02:11:37;20.90;59.20
20284;DHT22;10301;50.832;4.080;2023-09-12T02:14:03;20.60;71.10
20284;DHT22;10301;50.832;4.080;2023-09-12T02:16:31;20.40;85.60
20284;DHT22;10301;50.832;4.080;2023-09-12T02:18:56;20.60;84.80
20284;DHT22;10301;50.832;4.080;2023-09-12T02:21:22;20.80;68.70
20284;DHT22;10301;50.832;4.080;2023-09-12T02:23:48;20.80;61.90
20284;DHT22;10301;50.832;4.080;2023-09-12T02:26:13;20.80;60.40
20284;DHT22;10301;50.832;4.080;2023-09-12T02:28:39;20.80;59.60
20284;DHT22;10301;50.832;4.080;2023-09-12T02:31:10;20.80;60.80
20284;DHT22;10301;50.832;4.080;2023-09-12T02:33:38;20.70;68.10
20284;DHT22;10301;50.832;4.080;2023-09-12T02:36:04;20.40;82.20
20284;DHT22;10301;50.832;4.080;2023-09-12T02:38:30;20.40;90.60
20284;DHT22;10301;50.832;4.080;2023-09-12T02:40:56;20.30;86.80
20284;DHT22;10301;50.832;4.080;2023-09-12T02:43:22;20.20;93.40
20284;DHT22;10301;50.832;4.080;2023-09-12T02:45:47;20.20;95.70
20284;DHT22;10301;50.832;4.080;2023-09-12T02:48:13;20.30;96.20
20284;DHT22;10301;50.832;4.080;2023-09-12T02:50:38;20.60;90.00
20284;DHT22;10301;50.832;4.080;2023-09-12T02:53:04;20.80;78.20
20284;DHT22;10301;50.832;4.080;2023-09-12T02:55:30;20.90;71.20
20284;DHT22;10301;50.832;4.080;2023-09-12T02:57:56;20.80;72.10
20284;DHT22;10301;50.832;4.080;2023-09-12T03:00:22;20.70;77.60
20284;DHT22;10301;50.832;4.080;2023-09-12T03:02:47;20.80;78.50
20284;DHT22;10301;50.832;4.080;2023-09-12T03:05:13;20.70;74.50
20284;DHT22;10301;50.832;4.080;2023-09-12T03:07:39;20.80;71.90
20284;DHT22;10301;50.832;4.080;2023-09-12T03:10:05;20.90;63.10
20284;DHT22;10301;50.832;4.080;2023-09-12T03:12:31;21.10;48.00
20284;DHT22;10301;50.832;4.080;2023-09-12T03:14:56;21.10;42.00
20284;DHT22;10301;50.832;4.080;2023-09-12T03:17:22;21.00;42.90
20284;DHT22;10301;50.832;4.080;2023-09-12T03:19:48;21.00;50.50
20284;DHT22;10301;50.832;4.080;2023-09-12T03:22:13;20.80;59.50
20284;DHT22;10301;50.832;4.080;2023-09-12T03:24:39;20.70;65.80
20284;DHT22;10301;50.832;4.080;2023-09-12T03:27:05;20.80;65.90
20284;DHT22;10301;50.832;4.080;2023-09-12T03:29:30;20.90;64.20
20284;DHT22;10301;50.832;4.080;2023-09-12T03:31:56;20.90;56.50
20284;DHT22;10301;50.832;4.080;2023-09-12T03:34:22;21.00;55.40
20284;DHT22;10301;50.832;4.080;2023-09-12T03:36:47;21.00;52.40
20284;DHT22;10301;50.832;4.080;2023-09-12T03:39:13;21.10;45.10
20284;DHT22;10301;50.832;4.080;2023-09-12T03:41:39;21.10;41.80
20284;DHT22;10301;50.832;4.080;2023-09-12T03:44:05;21.00;44.00
20284;DHT22;10301;50.832;4.080;2023-09-12T03:46:31;21.00;45.70
20284;DHT22;10301;50.832;4.080;2023-09-12T03:48:56;20.90;53.70
20284;DHT22;10301;50.832;4.080;2023-09-12T03:51:22;21.00;50.60
20284;DHT22;10301;50.832;4.080;2023-09-12T03:53:48;21.00;42.20
20284;DHT22;10301;50.832;4.080;2023-09-12T03:56:15;20.90;43.90
20284;DHT22;10301;50.832;4.080;2023-09-12T03:58:41;20.90;48.70
20284;DHT22;10301;50.832;4.080;2023-09-12T04:01:07;20.90;46.40
20284;DHT22;10301;50.832;4.080;2023-09-12T04:03:33;20.90;43.10
20284;DHT22;10301;50.832;4.080;2023-09-12T04:05:58;20.90;45.20
20284;DHT22;10301;50.832;4.080;2023-09-12T04:08:24;21.00;43.50
20284;DHT22;10301;50.832;4.080;2023-09-12T04:10:49;21.00;42.50
20284;DHT22;10301;50.832;4.080;2023-09-12T04:13:15;20.90;44.60
20284;DHT22;10301;50.832;4.080;2023-09-12T04:15:41;20.80;53.50
20284;DHT22;10301;50.832;4.080;2023-09-12T04:18:06;20.80;55.20
20284;DHT22;10301;50.832;4.080;2023-09-12T04:20:32;20.80;57.90
20284;DHT22;10301;50.832;4.080;2023-09-12T04:23:01;20.70;62.00
20284;DHT22;10301;50.832;4.080;2023-09-12T04:25:27;20.80;56.60
20284;DHT22;10301;50.832;4.080;2023-09-12T04:27:53;20.80;52.10
20284;DHT22;10301;50.832;4.080;2023-09-12T04:30:18;20.80;53.00
20284;DHT22;10301;50.832;4.080;2023-09-12T04:32:44;20.60;53.40
20284;DHT22;10301;50.832;4.080;2023-09-12T04:35:10;20.50;68.40
20284;DHT22;10301;50.832;4.080;2023-09-12T04:37:35;20.40;72.60
20284;DHT22;10301;50.832;4.080;2023-09-12T04:40:01;20.50;67.80
20284;DHT22;10301;50.832;4.080;2023-09-12T04:42:27;20.50;60.50
20284;DHT22;10301;50.832;4.080;2023-09-12T04:44:52;20.50;61.60
20284;DHT22;10301;50.832;4.080;2023-09-12T04:47:18;20.40;67.70
20284;DHT22;10301;50.832;4.080;2023-09-12T04:49:44;20.40;67.30
20284;DHT22;10301;50.832;4.080;2023-09-12T04:52:10;20.30;69.50
20284;DHT22;10301;50.832;4.080;2023-09-12T04:54:35;20.20;70.00
20284;DHT22;10301;50.832;4.080;2023-09-12T04:57:02;20.20;75.10
20284;DHT22;10301;50.832;4.080;2023-09-12T04:59:28;20.10;80.50
20284;DHT22;10301;50.832;4.080;2023-09-12T05:01:53;20.10;82.50
20284;DHT22;10301;50.832;4.080;2023-09-12T05:04:19;20.00;81.60
20284;DHT22;10301;50.832;4.080;2023-09-12T05:06:45;20.00;83.20
20284;DHT22;10301;50.832;4.080;2023-09-12T05:09:12;20.00;79.40
20284;DHT22;10301;50.832;4.080;2023-09-12T05:11:37;19.90;84.00
20284;DHT22;10301;50.832;4.080;2023-09-12T05:14:03;19.90;84.60
20284;DHT22;10301;50.832;4.080;2023-09-12T05:16:29;19.90;78.80
20284;DHT22;10301;50.832;4.080;2023-09-12T05:18:55;19.90;77.00
20284;DHT22;10301;50.832;4.080;2023-09-12T05:21:21;19.90;80.30
20284;DHT22;10301;50.832;4.080;2023-09-12T05:23:46;19.80;76.40
20284;DHT22;10301;50.832;4.080;2023-09-12T05:26:12;19.80;80.70
20284;DHT22;10301;50.832;4.080;2023-09-12T05:28:38;19.70;79.40
20284;DHT22;10301;50.832;4.080;2023-09-12T05:31:04;19.70;85.50
20284;DHT22;10301;50.832;4.080;2023-09-12T05:33:29;19.70;90.80
20284;DHT22;10301;50.832;4.080;2023-09-12T05:35:55;19.70;90.70
20284;DHT22;10301;50.832;4.080;2023-09-12T05:38:21;19.70;91.40
20284;DHT22;10301;50.832;4.080;2023-09-12T05:40:46;19.70;93.40
20284;DHT22;10301;50.832;4.080;2023-09-12T05:43:15;19.70;93.10
20284;DHT22;10301;50.832;4.080;2023-09-12T05:45:41;19.70;92.80
20284;DHT22;10301;50.832;4.080;2023-09-12T05:48:07;19.90;89.00
20284;DHT22;10301;50.832;4.080;2023-09-12T05:50:32;20.00;81.50
20284;DHT22;10301;50.832;4.080;2023-09-12T05:52:58;19.90;78.20
20284;DHT22;10301;50.832;4.080;2023-09-12T05:55:24;19.90;80.90
20284;DHT22;10301;50.832;4.080;2023-09-12T05:57:50;19.80;85.30
20284;DHT22;10301;50.832;4.080;2023-09-12T06:00:19;19.80;85.50
20284;DHT22;10301;50.832;4.080;2023-09-12T06:02:46;19.80;85.80
20284;DHT22;10301;50.832;4.080;2023-09-12T06:05:12;19.80;88.30
20284;DHT22;10301;50.832;4.080;2023-09-12T06:07:37;19.80;85.60
20284;DHT22;10301;50.832;4.080;2023-09-12T06:10:06;19.80;86.40
20284;DHT22;10301;50.832;4.080;2023-09-12T06:12:32;19.80;90.20
20284;DHT22;10301;50.832;4.080;2023-09-12T06:14:59;19.70;90.00
20284;DHT22;10301;50.832;4.080;2023-09-12T06:17:24;19.90;90.50
20284;DHT22;10301;50.832;4.080;2023-09-12T06:19:50;19.90;88.40
20284;DHT22;10301;50.832;4.080;2023-09-12T06:22:17;20.00;83.90
20284;DHT22;10301;50.832;4.080;2023-09-12T06:24:43;20.10;81.70
20284;DHT22;10301;50.832;4.080;2023-09-12T06:27:09;20.20;80.40
20284;DHT22;10301;50.832;4.080;2023-09-12T06:29:37;20.30;70.60
20284;DHT22;10301;50.832;4.080;2023-09-12T06:32:03;20.30;72.60
20284;DHT22;10301;50.832;4.080;2023-09-12T06:34:29;20.30;70.50
20284;DHT22;10301;50.832;4.080;2023-09-12T06:36:55;20.40;67.20
20284;DHT22;10301;50.832;4.080;2023-09-12T06:39:20;20.50;65.80
20284;DHT22;10301;50.832;4.080;2023-09-12T06:41:46;20.50;65.10
20284;DHT22;10301;50.832;4.080;2023-09-12T06:44:12;20.50;66.50
20284;DHT22;10301;50.832;4.080;2023-09-12T06:46:37;20.50;66.60
20284;DHT22;10301;50.832;4.080;2023-09-12T06:49:03;20.60;66.50
20284;DHT22;10301;50.832;4.080;2023-09-12T06:51:29;20.50;67.30
20284;DHT22;10301;50.832;4.080;2023-09-12T06:53:55;20.60;67.50
20284;DHT22;10301;50.832;4.080;2023-09-12T06:56:20;20.60;64.30
20284;DHT22;10301;50.832;4.080;2023-09-12T06:58:47;20.70;61.20
20284;DHT22;10301;50.832;4.080;2023-09-12T07:01:13;20.70;57.00
20284;DHT22;10301;50.832;4.080;2023-09-12T07:03:39;20.70;54.90
20284;DHT22;10301;50.832;4.080;2023-09-12T07:06:05;20.80;50.10
20284;DHT22;10301;50.832;4.080;2023-09-12T07:08:31;20.80;54.00
20284;DHT22;10301;50.832;4.080;2023-09-12T07:10:58;20.70;56.00
20284;DHT22;10301;50.832;4.080;2023-09-12T07:13:31;20.80;57.50
20284;DHT22;10301;50.832;4.080;2023-09-12T07:15:57;20.80;53.50
20284;DHT22;10301;50.832;4.080;2023-09-12T07:18:22;21.00;47.80
20284;DHT22;10301;50.832;4.080;2023-09-12T07:21:00;21.20;34.60
20284;DHT22;10301;50.832;4.080;2023-09-12T07:23:26;21.30;28.00
20284;DHT22;10301;50.832;4.080;2023-09-12T07:25:53;21.40;24.30
20284;DHT22;10301;50.832;4.080;2023-09-12T07:28:20;21.60;14.40
20284;DHT22;10301;50.832;4.080;2023-09-12T07:30:46;21.50;14.90
20284;DHT22;10301;50.832;4.080;2023-09-12T07:33:12;21.60;10.30
20284;DHT22;10301;50.832;4.080;2023-09-12T07:35:38;21.60;6.40
20284;DHT22;10301;50.832;4.080;2023-09-12T07:38:04;21.60;2.10
20284;DHT22;10301;50.832;4.080;2023-09-12T07:40:29;21.60;1.00
20284;DHT22;10301;50.832;4.080;2023-09-12T07:42:55;21.40;2.80
20284;DHT22;10301;50.832;4.080;2023-09-12T07:45:21;21.50;1.00
20284;DHT22;10301;50.832;4.080;2023-09-12T07:47:47;21.50;1.00
20284;DHT22;10301;50.832;4.080;2023-09-12T07:50:13;21.50;1.00
20284;DHT22;10301;50.832;4.080;2023-09-12T07:52:38;21.60;1.00
20284;DHT22;10301;50.832;4.080;2023-09-12T07:55:04;21.70;1.00
20284;DHT22;10301;50.832;4.080;2023-09-12T07:57:30;21.70;1.00
20284;DHT22;10301;50.832;4.080;2023-09-12T07:59:56;21.80;1.00
20284;DHT22;10301;50.832;4.080;2023-09-12T08:02:22;22.00;1.00
20284;DHT22;10301;50.832;4.080;2023-09-12T08:04:51;22.10;1.00
20284;DHT22;10301;50.832;4.080;2023-09-12T08:07:17;22.10;1.00
20284;DHT22;10301;50.832;4.080;2023-09-12T08:09:54;21.90;1.00
20284;DHT22;10301;50.832;4.080;2023-09-12T08:12:21;22.00;1.00
20284;DHT22;10301;50.832;4.080;2023-09-12T08:14:47;22.00;1.00
20284;DHT22;10301;50.832;4.080;2023-09-12T08:17:13;22.10;1.00
20284;DHT22;10301;50.832;4.080;2023-09-12T08:19:39;22.00;1.00
20284;DHT22;10301;50.832;4.080;2023-09-12T08:22:06;22.00;1.00
20284;DHT22;10301;50.832;4.080;2023-09-12T08:24:33;22.10;1.00
20284;DHT22;10301;50.832;4.080;2023-09-12T08:26:59;22.10;1.00
20284;DHT22;10301;50.832;4.080;2023-09-12T08:29:25;22.10;1.00
20284;DHT22;10301;50.832;4.080;2023-09-12T08:31:50;22.20;1.00
20284;DHT22;10301;50.832;4.080;2023-09-12T08:34:17;22.30;1.00
20284;DHT22;10301;50.832;4.080;2023-09-12T08:36:42;22.40;1.00
20284;DHT22;10301;50.832;4.080;2023-09-12T08:39:13;22.50;1.00
20284;DHT22;10301;50.832;4.080;2023-09-12T08:41:39;22.40;1.00
20284;DHT22;10301;50.832;4.080;2023-09-12T08:44:05;22.50;1.00
20284;DHT22;10301;50.832;4.080;2023-09-12T08:46:34;22.60;1.00
20284;DHT22;10301;50.832;4.080;2023-09-12T08:48:59;22.80;1.00
20284;DHT22;10301;50.832;4.080;2023-09-12T08:51:25;22.80;1.00
20284;DHT22;10301;50.832;4.080;2023-09-12T08:53:52;22.80;1.00
20284;DHT22;10301;50.832;4.080;2023-09-12T08:56:18;22.90;1.00
20284;DHT22;10301;50.832;4.080;2023-09-12T08:58:45;23.00;1.00
20284;DHT22;10301;50.832;4.080;2023-09-12T09:01:13;23.00;1.00
20284;DHT22;10301;50.832;4.080;2023-09-12T09:03:42;23.00;1.00
20284;DHT22;10301;50.832;4.080;2023-09-12T09:06:11;23.10;1.00
20284;DHT22;10301;50.832;4.080;2023-09-12T09:08:39;23.20;1.00
20284;DHT22;10301;50.832;4.080;2023-09-12T09:11:04;23.30;1.00
20284;DHT22;10301;50.832;4.080;2023-09-12T09:13:34;23.30;1.00
20284;DHT22;10301;50.832;4.080;2023-09-12T09:16:11;23.30;1.00
20284;DHT22;10301;50.832;4.080;2023-09-12T09:18:56;23.30;1.00
20284;DHT22;10301;50.832;4.080;2023-09-12T09:21:25;23.50;1.00
20284;DHT22;10301;50.832;4.080;2023-09-12T09:23:52;23.60;1.00
20284;DHT22;10301;50.832;4.080;2023-09-12T09:26:18;23.70;1.00
20284;DHT22;10301;50.832;4.080;2023-09-12T09:28:44;23.80;1.00
20284;DHT22;10301;50.832;4.080;2023-09-12T09:31:12;24.00;1.00
20284;DHT22;10301;50.832;4.080;2023-09-12T09:33:39;24.20;1.00
20284;DHT22;10301;50.832;4.080;2023-09-12T09:36:07;24.30;1.00
20284;DHT22;10301;50.832;4.080;2023-09-12T09:38:34;24.50;1.00
20284;DHT22;10301;50.832;4.080;2023-09-12T09:41:03;24.80;1.00
20284;DHT22;10301;50.832;4.080;2023-09-12T09:43:30;24.90;99.90
20284;DHT22;10301;50.832;4.080;2023-09-12T09:45:57;25.00;99.90
20284;DHT22;10301;50.832;4.080;2023-09-12T09:48:24;25.00;99.90
20284;DHT22;10301;50.832;4.080;2023-09-12T09:50:53;25.10;99.90
20284;DHT22;10301;50.832;4.080;2023-09-12T09:53:31;25.00;99.90
20284;DHT22;10301;50.832;4.080;2023-09-12T09:59:06;25.00;99.90
20284;DHT22;10301;50.832;4.080;2023-09-12T10:01:33;25.20;99.90
20284;DHT22;10301;50.832;4.080;2023-09-12T10:04:01;25.30;99.90
20284;DHT22;10301;50.832;4.080;2023-09-12T10:06:27;25.30;1.00
20284;DHT22;10301;50.832;4.080;2023-09-12T10:08:55;25.30;1.00
20284;DHT22;10301;50.832;4.080;2023-09-12T10:11:23;25.30;1.00
20284;DHT22;10301;50.832;4.080;2023-09-12T10:13:53;25.40;1.00
20284;DHT22;10301;50.832;4.080;2023-09-12T10:16:23;25.50;1.00
20284;DHT22;10301;50.832;4.080;2023-09-12T10:19:07;25.60;1.00
20284;DHT22;10301;50.832;4.080;2023-09-12T10:21:36;25.30;1.00
20284;DHT22;10301;50.832;4.080;2023-09-12T10:24:07;25.40;99.90
20284;DHT22;10301;50.832;4.080;2023-09-12T10:26:34;25.30;1.00
20284;DHT22;10301;50.832;4.080;2023-09-12T10:29:00;25.30;1.00
20284;DHT22;10301;50.832;4.080;2023-09-12T10:31:28;25.30;1.00
20284;DHT22;10301;50.832;4.080;2023-09-12T10:33:54;25.30;1.00
20284;DHT22;10301;50.832;4.080;2023-09-12T10:36:20;25.30;1.00
20284;DHT22;10301;50.832;4.080;2023-09-12T10:38:48;25.40;99.90
20284;DHT22;10301;50.832;4.080;2023-09-12T10:41:15;25.40;1.00
20284;DHT22;10301;50.832;4.080;2023-09-12T10:43:44;25.10;99.90
20284;DHT22;10301;50.832;4.080;2023-09-12T10:46:13;25.30;1.00
20284;DHT22;10301;50.832;4.080;2023-09-12T10:48:38;25.50;1.00
20284;DHT22;10301;50.832;4.080;2023-09-12T10:51:08;25.50;1.00
20284;DHT22;10301;50.832;4.080;2023-09-12T10:53:35;25.40;99.90
20284;DHT22;10301;50.832;4.080;2023-09-12T10:56:15;25.30;99.90
20284;DHT22;10301;50.832;4.080;2023-09-12T11:01:46;25.30;1.00
20284;DHT22;10301;50.832;4.080;2023-09-12T11:06:44;25.70;99.90
20284;DHT22;10301;50.832;4.080;2023-09-12T11:09:23;25.70;1.00
20284;DHT22;10301;50.832;4.080;2023-09-12T11:12:02;25.70;99.90
20284;DHT22;10301;50.832;4.080;2023-09-12T11:14:28;25.70;99.90
20284;DHT22;10301;50.832;4.080;2023-09-12T11:19:49;25.80;1.00
20284;DHT22;10301;50.832;4.080;2023-09-12T11:22:29;25.90;1.00
20284;DHT22;10301;50.832;4.080;2023-09-12T11:25:02;25.90;99.90
20284;DHT22;10301;50.832;4.080;2023-09-12T11:30:26;26.10;99.90
20284;DHT22;10301;50.832;4.080;2023-09-12T11:32:53;26.00;99.90
20284;DHT22;10301;50.832;4.080;2023-09-12T11:35:24;26.00;1.00
20284;DHT22;10301;50.832;4.080;2023-09-12T11:37:51;26.00;99.90
20284;DHT22;10301;50.832;4.080;2023-09-12T11:40:26;26.10;99.90
20284;DHT22;10301;50.832;4.080;2023-09-12T11:43:06;26.10;99.90
20284;DHT22;10301;50.832;4.080;2023-09-12T11:45:32;26.10;99.90
20284;DHT22;10301;50.832;4.080;2023-09-12T11:47:58;26.10;1.00
20284;DHT22;10301;50.832;4.080;2023-09-12T11:50:32;26.20;1.00
20284;DHT22;10301;50.832;4.080;2023-09-12T11:53:24;25.90;99.90
20284;DHT22;10301;50.832;4.080;2023-09-12T11:55:57;26.10;99.90
20284;DHT22;10301;50.832;4.080;2023-09-12T11:58:24;26.60;1.00
20284;DHT22;10301;50.832;4.080;2023-09-12T12:00:52;27.00;1.00
20284;DHT22;10301;50.832;4.080;2023-09-12T12:03:20;27.10;1.00
20284;DHT22;10301;50.832;4.080;2023-09-12T12:05:47;27.00;1.00
20284;DHT22;10301;50.832;4.080;2023-09-12T12:08:14;27.10;1.00
20284;DHT22;10301;50.832;4.080;2023-09-12T12:10:40;27.20;99.90
20284;DHT22;10301;50.832;4.080;2023-09-12T12:13:10;27.40;1.00
20284;DHT22;10301;50.832;4.080;2023-09-12T12:15:36;27.60;99.90
20284;DHT22;10301;50.832;4.080;2023-09-12T12:18:02;27.50;1.00
20284;DHT22;10301;50.832;4.080;2023-09-12T12:20:28;27.70;1.00
20284;DHT22;10301;50.832;4.080;2023-09-12T12:22:55;27.80;99.90
20284;DHT22;10301;50.832;4.080;2023-09-12T12:25:21;27.60;1.00
20284;DHT22;10301;50.832;4.080;2023-09-12T12:27:48;27.80;1.00
20284;DHT22;10301;50.832;4.080;2023-09-12T12:30:14;28.00;99.90
20284;DHT22;10301;50.832;4.080;2023-09-12T12:32:41;27.80;99.90
20284;DHT22;10301;50.832;4.080;2023-09-12T12:35:08;27.70;99.90
20284;DHT22;10301;50.832;4.080;2023-09-12T12:37:36;27.60;99.90
20284;DHT22;10301;50.832;4.080;2023-09-12T12:40:02;27.40;1.00
20284;DHT22;10301;50.832;4.080;2023-09-12T12:42:37;27.40;1.00
20284;DHT22;10301;50.832;4.080;2023-09-12T12:45:12;27.10;1.00
20284;DHT22;10301;50.832;4.080;2023-09-12T12:47:38;26.90;99.90
20284;DHT22;10301;50.832;4.080;2023-09-12T12:50:10;27.10;92.80
20284;DHT22;10301;50.832;4.080;2023-09-12T12:52:36;27.00;1.00
20284;DHT22;10301;50.832;4.080;2023-09-12T12:55:07;27.10;1.00
20284;DHT22;10301;50.832;4.080;2023-09-12T12:57:44;27.40;99.90
20284;DHT22;10301;50.832;4.080;2023-09-12T13:00:11;27.50;99.90
20284;DHT22;10301;50.832;4.080;2023-09-12T13:02:38;27.50;1.00
20284;DHT22;10301;50.832;4.080;2023-09-12T13:05:05;27.30;1.00
20284;DHT22;10301;50.832;4.080;2023-09-12T13:07:34;27.30;1.00
20284;DHT22;10301;50.832;4.080;2023-09-12T13:10:01;27.30;1.00
20284;DHT22;10301;50.832;4.080;2023-09-12T13:12:28;27.10;1.00
20284;DHT22;10301;50.832;4.080;2023-09-12T13:14:53;27.10;1.00
20284;DHT22;10301;50.832;4.080;2023-09-12T13:17:19;27.00;99.90
20284;DHT22;10301;50.832;4.080;2023-09-12T13:19:44;27.00;60.70
20284;DHT22;10301;50.832;4.080;2023-09-12T13:22:11;27.10;1.00
20284;DHT22;10301;50.832;4.080;2023-09-12T13:24:36;27.10;99.90
20284;DHT22;10301;50.832;4.080;2023-09-12T13:27:02;27.00;99.90
20284;DHT22;10301;50.832;4.080;2023-09-12T13:29:28;26.80;99.90
20284;DHT22;10301;50.832;4.080;2023-09-12T13:31:53;26.70;1.00
20284;DHT22;10301;50.832;4.080;2023-09-12T13:34:19;26.70;1.00
20284;DHT22;10301;50.832;4.080;2023-09-12T13:36:44;26.70;1.00
20284;DHT22;10301;50.832;4.080;2023-09-12T13:39:10;26.70;1.00
20284;DHT22;10301;50.832;4.080;2023-09-12T13:41:38;26.50;1.00
20284;DHT22;10301;50.832;4.080;2023-09-12T13:44:05;26.60;1.00
20284;DHT22;10301;50.832;4.080;2023-09-12T13:46:31;26.60;1.00
20284;DHT22;10301;50.832;4.080;2023-09-12T13:48:57;26.70;99.90
20284;DHT22;10301;50.832;4.080;2023-09-12T13:51:26;26.60;99.90
20284;DHT22;10301;50.832;4.080;2023-09-12T13:53:52;26.70;99.90
20284;DHT22;10301;50.832;4.080;2023-09-12T13:56:17;26.80;99.90
20284;DHT22;10301;50.832;4.080;2023-09-12T13:58:43;26.90;1.00
20284;DHT22;10301;50.832;4.080;2023-09-12T14:01:09;27.00;1.00
20284;DHT22;10301;50.832;4.080;2023-09-12T14:03:34;27.00;1.00
20284;DHT22;10301;50.832;4.080;2023-09-12T14:06:00;27.00;99.90
20284;DHT22;10301;50.832;4.080;2023-09-12T14:08:26;27.00;99.90
20284;DHT22;10301;50.832;4.080;2023-09-12T14:10:51;27.00;99.90
20284;DHT22;10301;50.832;4.080;2023-09-12T14:13:17;26.90;99.90
20284;DHT22;10301;50.832;4.080;2023-09-12T14:15:43;26.90;1.00
20284;DHT22;10301;50.832;4.080;2023-09-12T14:18:08;27.00;1.00
20284;DHT22;10301;50.832;4.080;2023-09-12T14:20:34;27.00;1.00
20284;DHT22;10301;50.832;4.080;2023-09-12T14:23:00;27.00;1.00
20284;DHT22;10301;50.832;4.080;2023-09-12T14:25:27;26.90;1.00
20284;DHT22;10301;50.832;4.080;2023-09-12T14:27:52;26.80;1.00
20284;DHT22;10301;50.832;4.080;2023-09-12T14:30:18;26.70;1.00
20284;DHT22;10301;50.832;4.080;2023-09-12T14:32:46;26.60;1.00
20284;DHT22;10301;50.832;4.080;2023-09-12T14:35:11;26.80;99.90
20284;DHT22;10301;50.832;4.080;2023-09-12T14:37:37;26.60;1.00
20284;DHT22;10301;50.832;4.080;2023-09-12T14:40:04;26.40;99.90
20284;DHT22;10301;50.832;4.080;2023-09-12T14:42:30;26.30;1.00
20284;DHT22;10301;50.832;4.080;2023-09-12T14:44:56;26.20;1.00
20284;DHT22;10301;50.832;4.080;2023-09-12T14:47:22;26.20;50.90
20284;DHT22;10301;50.832;4.080;2023-09-12T14:49:48;26.10;99.90
20284;DHT22;10301;50.832;4.080;2023-09-12T14:52:13;26.20;1.00
20284;DHT22;10301;50.832;4.080;2023-09-12T14:54:39;26.10;1.00
20284;DHT22;10301;50.832;4.080;2023-09-12T14:57:04;25.90;1.00
20284;DHT22;10301;50.832;4.080;2023-09-12T14:59:30;26.00;1.00
20284;DHT22;10301;50.832;4.080;2023-09-12T15:01:56;26.00;99.90
20284;DHT22;10301;50.832;4.080;2023-09-12T15:04:21;25.70;99.90
20284;DHT22;10301;50.832;4.080;2023-09-12T15:06:47;25.90;99.90
20284;DHT22;10301;50.832;4.080;2023-09-12T15:09:13;26.10;1.00
20284;DHT22;10301;50.832;4.080;2023-09-12T15:11:38;26.10;1.00
20284;DHT22;10301;50.832;4.080;2023-09-12T15:14:04;26.10;1.00
20284;DHT22;10301;50.832;4.080;2023-09-12T15:16:30;26.00;1.00
20284;DHT22;10301;50.832;4.080;2023-09-12T15:19:00;25.80;1.00
20284;DHT22;10301;50.832;4.080;2023-09-12T15:21:28;25.90;1.00
20284;DHT22;10301;50.832;4.080;2023-09-12T15:23:53;26.00;1.00
20284;DHT22;10301;50.832;4.080;2023-09-12T15:26:19;25.90;99.90
20284;DHT22;10301;50.832;4.080;2023-09-12T15:28:45;25.80;1.00
20284;DHT22;10301;50.832;4.080;2023-09-12T15:31:10;25.70;1.00
20284;DHT22;10301;50.832;4.080;2023-09-12T15:33:37;25.70;1.00
20284;DHT22;10301;50.832;4.080;2023-09-12T15:36:02;25.70;1.00
20284;DHT22;10301;50.832;4.080;2023-09-12T15:38:28;25.70;1.00
20284;DHT22;10301;50.832;4.080;2023-09-12T15:40:54;25.70;99.90
20284;DHT22;10301;50.832;4.080;2023-09-12T15:43:22;25.70;25.60
20284;DHT22;10301;50.832;4.080;2023-09-12T15:45:47;25.80;99.90
20284;DHT22;10301;50.832;4.080;2023-09-12T15:48:14;25.80;1.00
20284;DHT22;10301;50.832;4.080;2023-09-12T15:50:40;25.90;1.00
20284;DHT22;10301;50.832;4.080;2023-09-12T15:53:05;26.00;99.90